Time;durP1;ratioP1;P1;durP2;ratioP2;P2;SDS_P1;SDS_P2;PMS_P1;PMS_P2;Temp;Humidity;BMP_temperature;BMP_pressure;BME280_temperature;BME280_humidity;BME280_pressure;Samples;Min_cycle;Max_cycle;Signal;HPM_P1;HPM_P2
2023/06/09 00:00:59;;;;;;;4.60;2.80;;;;;;;18.69;65.98;98929.20;105889;1251;61175;-23
2023/06/09 00:03:26;;;;;;;7.70;2.90;;;;;;;18.58;65.75;98930.34;105998;1251;73781;-23
2023/06/09 00:05:53;;;;;;;5.40;3.30;;;;;;;18.38;66.03;98931.62;105816;1251;74721;-23
2023/06/09 00:08:21;;;;;;;3.20;2.90;;;;;;;18.19;66.45;98931.02;105833;1251;72438;-24
2023/06/09 00:10:48;;;;;;;4.20;3.10;;;;;;;18.01;67.00;98926.91;105735;1251;61143;-23
2023/06/09 00:13:17;;;;;;;3.80;3.40;;;;;;;17.83;67.42;98928.17;105908;1254;61185;-23
2023/06/09 00:15:44;;;;;;;5.20;3.60;;;;;;;17.68;67.89;98932.02;106022;1251;74077;-23
2023/06/09 00:18:15;;;;;;;3.70;3.20;;;;;;;17.54;68.14;98923.38;105886;1251;74290;-23
2023/06/09 00:20:43;;;;;;;5.00;3.30;;;;;;;17.42;68.80;98923.32;105942;1254;72622;-23
2023/06/09 00:23:10;;;;;;;4.30;2.30;;;;;;;17.34;69.36;98922.11;105973;1251;61086;-23
2023/06/09 00:25:36;;;;;;;5.50;2.50;;;;;;;17.83;69.28;98921.52;105996;1254;61162;-23
2023/06/09 00:28:03;;;;;;;5.40;3.10;;;;;;;18.41;67.50;98922.11;105990;1251;74677;-23
2023/06/09 00:30:30;;;;;;;6.30;3.20;;;;;;;18.53;66.66;98922.29;105945;1252;74472;-23
2023/06/09 00:33:07;;;;;;;3.60;2.70;;;;;;;18.41;66.43;98920.36;105919;1254;72547;-23
2023/06/09 00:35:34;;;;;;;4.00;3.30;;;;;;;18.21;66.84;98921.13;105898;1254;61058;-23
2023/06/09 00:38:01;;;;;;;3.50;3.20;;;;;;;18.00;67.50;98917.05;105937;1250;61441;-23
2023/06/09 00:40:28;;;;;;;4.30;3.00;;;;;;;17.77;67.73;98915.01;105833;1251;73814;-23
2023/06/09 00:42:56;;;;;;;4.20;3.40;;;;;;;17.55;68.31;98917.13;105907;1252;74865;-23
2023/06/09 00:45:23;;;;;;;7.10;3.20;;;;;;;17.34;68.80;98915.55;105986;1251;72517;-23
2023/06/09 00:47:51;;;;;;;8.90;4.10;;;;;;;17.17;69.62;98918.40;105914;1251;61148;-23
2023/06/09 00:50:20;;;;;;;4.80;2.80;;;;;;;17.02;70.70;98921.23;105866;1254;61162;-23
2023/06/09 00:52:47;;;;;;;3.20;2.20;;;;;;;17.44;70.72;98918.85;105662;1251;73616;-23
2023/06/09 00:55:16;;;;;;;4.60;2.80;;;;;;;17.97;69.23;98911.60;105795;1251;74180;-23
2023/06/09 00:57:55;;;;;;;5.20;3.10;;;;;;;18.04;68.39;98910.43;105604;1254;72631;-24
2023/06/09 01:00:26;;;;;;;5.50;3.10;;;;;;;17.85;68.54;98911.42;105635;1253;61076;-23
2023/06/09 01:03:01;;;;;;;4.50;3.00;;;;;;;17.62;68.83;98914.55;105632;1251;61061;-23
2023/06/09 01:05:32;;;;;;;3.80;3.10;;;;;;;17.37;69.36;98909.63;105736;1251;73914;-23
2023/06/09 01:08:07;;;;;;;3.90;3.20;;;;;;;17.16;69.90;98909.04;105759;1251;74859;-23
2023/06/09 01:10:48;;;;;;;4.00;3.30;;;;;;;16.98;70.70;98910.80;105897;1251;71563;-23
2023/06/09 01:13:42;;;;;;;4.00;3.60;;;;;;;16.81;71.24;98908.24;105751;1252;61227;-23
2023/06/09 01:16:13;;;;;;;4.90;2.50;;;;;;;16.73;71.99;98907.55;105828;1257;61183;-23
2023/06/09 01:18:42;;;;;;;7.20;3.60;;;;;;;17.37;71.50;98904.67;105862;1256;72265;-23
2023/06/09 01:21:12;;;;;;;6.30;3.40;;;;;;;17.98;69.68;98903.52;105705;1260;74274;-23
2023/06/09 01:24:15;;;;;;;6.10;4.50;;;;;;;18.09;68.56;98902.30;105873;1251;72625;-24
2023/06/09 01:26:43;;;;;;;7.30;3.70;;;;;;;17.91;68.66;98896.37;105596;1251;61010;-22
2023/06/09 01:29:10;;;;;;;6.60;4.00;;;;;;;17.72;68.96;98899.23;105574;1259;61151;-22
2023/06/09 01:31:37;;;;;;;4.60;3.80;;;;;;;17.52;69.14;98899.89;105942;1256;73822;-23
2023/06/09 01:34:04;;;;;;;8.00;4.10;;;;;;;17.32;69.99;98898.23;105597;1251;74333;-23
2023/06/09 01:36:31;;;;;;;6.90;4.20;;;;;;;17.15;70.77;98898.91;105928;1251;72555;-23
2023/06/09 01:38:59;;;;;;;7.20;4.40;;;;;;;16.98;71.48;98902.18;105797;1251;61082;-23
2023/06/09 01:41:26;;;;;;;4.80;3.20;;;;;;;16.86;71.79;98897.14;105672;1256;61100;-23
2023/06/09 01:43:54;;;;;;;6.70;3.90;;;;;;;17.33;71.99;98894.70;105791;1251;73655;-23
2023/06/09 01:46:21;;;;;;;5.50;3.60;;;;;;;17.88;70.70;98896.04;105891;1252;74752;-23
2023/06/09 01:48:55;;;;;;;14.90;6.80;;;;;;;18.00;69.72;98898.54;105858;1252;72511;-23
2023/06/09 01:51:47;;;;;;;24.10;9.60;;;;;;;17.87;69.39;98898.38;105825;1251;61144;-23
2023/06/09 01:54:22;;;;;;;18.90;8.00;;;;;;;17.65;69.49;98899.33;105894;1252;61154;-23
2023/06/09 01:57:01;;;;;;;19.20;8.00;;;;;;;17.42;70.33;98900.12;105714;1250;73860;-23
2023/06/09 01:59:32;;;;;;;26.60;10.40;;;;;;;17.23;70.86;98901.27;105744;1257;74559;-23
2023/06/09 02:02:01;;;;;;;11.60;6.30;;;;;;;17.05;70.63;98901.77;105759;1251;71673;-23
2023/06/09 02:04:29;;;;;;;7.90;4.70;;;;;;;16.88;70.92;98903.25;105673;1253;61252;-23
2023/06/09 02:06:55;;;;;;;9.50;4.70;;;;;;;16.76;71.84;98899.66;103586;1251;2658486;-23
2023/06/09 02:09:22;;;;;;;9.80;3.60;;;;;;;17.23;72.13;98898.77;105623;1256;62173;-23
2023/06/09 02:11:53;;;;;;;6.20;3.80;;;;;;;17.82;70.42;98894.80;105797;1252;74665;-23
2023/06/09 02:14:20;;;;;;;6.40;3.50;;;;;;;17.94;69.32;98896.21;105475;1254;72708;-23
2023/06/09 02:16:47;;;;;;;5.00;3.60;;;;;;;17.84;69.15;98898.11;105817;1251;61071;-23
2023/06/09 02:19:16;;;;;;;3.90;3.40;;;;;;;17.65;69.20;98895.84;106027;1254;61101;-23
2023/06/09 02:21:43;;;;;;;6.00;3.40;;;;;;;17.43;69.32;98897.17;105857;1251;73654;-23
2023/06/09 02:24:10;;;;;;;4.80;3.80;;;;;;;17.24;70.04;98898.63;105931;1252;74128;-23
2023/06/09 02:26:37;;;;;;;4.40;3.50;;;;;;;17.05;70.54;98897.04;105926;1252;72496;-23
2023/06/09 02:29:05;;;;;;;4.30;3.30;;;;;;;16.88;71.16;98900.65;105920;1254;61054;-24
2023/06/09 02:31:32;;;;;;;5.20;2.80;;;;;;;16.78;71.90;98902.96;105771;1254;61160;-23
2023/06/09 02:34:00;;;;;;;3.40;2.50;;;;;;;17.24;72.38;98898.95;105926;1251;72335;-23
2023/06/09 02:36:29;;;;;;;4.60;2.80;;;;;;;17.83;70.49;98895.73;105957;1254;74204;-24
2023/06/09 02:38:56;;;;;;;4.00;3.30;;;;;;;17.95;69.90;98894.54;105709;1250;72705;-23
2023/06/09 02:41:23;;;;;;;5.20;3.50;;;;;;;17.85;69.87;98892.88;105898;1251;61045;-23
2023/06/09 02:43:50;;;;;;;5.60;3.80;;;;;;;17.67;70.06;98896.51;105998;1253;61161;-23
2023/06/09 02:46:17;;;;;;;8.40;4.40;;;;;;;17.47;70.26;98901.02;106040;1251;73832;-23
2023/06/09 02:48:45;;;;;;;9.20;4.50;;;;;;;17.27;70.50;98900.39;105950;1254;74223;-23
2023/06/09 02:51:13;;;;;;;5.40;4.10;;;;;;;17.11;71.35;98905.83;105622;1254;72469;-23
2023/06/09 02:53:40;;;;;;;4.70;4.00;;;;;;;16.96;71.75;98905.70;105745;1251;61812;-23
2023/06/09 02:56:09;;;;;;;8.20;3.10;;;;;;;16.87;72.38;98904.14;105898;1256;61247;-24
2023/06/09 02:58:42;;;;;;;6.60;3.00;;;;;;;17.42;72.42;98902.62;105736;1251;73850;-23
2023/06/09 03:01:11;;;;;;;5.90;3.50;;;;;;;18.03;70.54;98899.84;105697;1251;74150;-23
2023/06/09 03:03:39;;;;;;;7.20;4.00;;;;;;;18.17;69.52;98900.55;105534;1257;71226;-23
2023/06/09 03:06:07;;;;;;;5.70;3.90;;;;;;;18.09;69.51;98899.63;105864;1251;61146;-23
2023/06/09 03:08:35;;;;;;;6.50;4.20;;;;;;;17.93;69.51;98898.08;105725;1251;61090;-23
2023/06/09 03:11:02;;;;;;;7.00;4.60;;;;;;;17.78;69.85;98897.86;105944;1251;73621;-23
2023/06/09 03:13:30;;;;;;;9.30;5.30;;;;;;;17.63;70.09;98897.98;105647;1251;74253;-23
2023/06/09 03:15:58;;;;;;;8.90;5.00;;;;;;;17.47;70.56;98901.91;105859;1251;72612;-23
2023/06/09 03:18:27;;;;;;;6.10;5.20;;;;;;;17.34;71.13;98903.98;105861;1252;61143;-23
2023/06/09 03:20:55;;;;;;;4.80;3.70;;;;;;;17.28;71.08;98905.35;105806;1256;61233;-23
2023/06/09 03:23:23;;;;;;;6.40;3.90;;;;;;;17.81;70.97;98902.23;106030;1251;72872;-23
2023/06/09 03:25:51;;;;;;;6.90;3.80;;;;;;;18.42;69.44;98905.52;105999;1251;75336;-23
2023/06/09 03:28:18;;;;;;;7.40;4.80;;;;;;;18.58;68.72;98907.34;105959;1254;72405;-23
2023/06/09 03:30:46;;;;;;;5.20;4.30;;;;;;;18.50;68.56;98906.55;105976;1252;61294;-23
2023/06/09 03:33:14;;;;;;;6.80;4.70;;;;;;;18.38;68.21;98912.19;105877;1254;61131;-23
2023/06/09 03:35:41;;;;;;;9.40;4.60;;;;;;;18.21;68.50;98915.42;105866;1252;73801;-24
2023/06/09 03:38:08;;;;;;;5.90;4.70;;;;;;;18.07;68.86;98912.48;105911;1251;74527;-23
2023/06/09 03:40:36;;;;;;;5.80;5.10;;;;;;;17.92;69.85;98910.65;105900;1254;72314;-23
2023/06/09 03:43:03;;;;;;;6.80;5.00;;;;;;;17.79;69.91;98910.88;105921;1251;61151;-23
2023/06/09 03:45:32;;;;;;;6.10;4.50;;;;;;;17.69;70.56;98912.31;106023;1251;61157;-23
2023/06/09 03:47:59;;;;;;;4.80;3.60;;;;;;;18.19;70.62;98913.23;105923;1252;73676;-23
2023/06/09 03:50:26;;;;;;;6.20;4.90;;;;;;;18.83;69.02;98912.88;105788;1251;74721;-23
2023/06/09 03:52:53;;;;;;;6.00;4.90;;;;;;;19.04;67.91;98916.23;105725;1254;72451;-23
2023/06/09 03:55:22;;;;;;;6.20;5.00;;;;;;;19.00;67.54;98920.04;105971;1250;61062;-23
2023/06/09 03:57:49;;;;;;;7.70;5.20;;;;;;;18.87;67.98;98919.59;105836;1256;61108;-23
2023/06/09 04:00:17;;;;;;;6.70;5.40;;;;;;;18.74;67.91;98920.42;105945;1252;73876;-23
2023/06/09 04:02:44;;;;;;;6.70;5.30;;;;;;;18.62;68.41;98917.25;105970;1252;72090;-23
2023/06/09 04:05:13;;;;;;;5.80;4.60;;;;;;;18.50;68.62;98916.52;105929;1253;72603;-23
2023/06/09 04:07:42;;;;;;;6.30;5.00;;;;;;;18.42;69.09;98920.41;105919;1254;61072;-23
2023/06/09 04:10:09;;;;;;;5.40;4.70;;;;;;;18.37;69.27;98919.44;105674;1262;61131;-23
2023/06/09 04:12:38;;;;;;;5.40;3.20;;;;;;;18.37;69.10;98919.67;105924;1256;72376;-23
2023/06/09 04:15:07;;;;;;;4.90;3.00;;;;;;;18.99;68.96;98919.02;106052;1251;74327;-23
2023/06/09 04:18:10;;;;;;;5.40;3.40;;;;;;;19.66;66.55;98924.13;105756;1251;72661;-23
2023/06/09 04:20:38;;;;;;;8.00;3.60;;;;;;;19.80;65.44;98921.92;106012;1251;61509;-23
2023/06/09 04:23:08;;;;;;;4.50;3.60;;;;;;;19.71;65.31;98921.54;105784;1252;61707;-23
2023/06/09 04:25:35;;;;;;;4.80;3.80;;;;;;;19.57;65.71;98923.86;105585;1251;73922;-23
2023/06/09 04:28:08;;;;;;;4.10;3.60;;;;;;;19.43;66.03;98929.70;105746;1256;74681;-23
2023/06/09 04:30:37;;;;;;;4.90;3.90;;;;;;;19.33;66.06;98927.72;105627;1251;72704;-23
2023/06/09 04:33:07;;;;;;;5.30;4.00;;;;;;;19.25;66.38;98928.30;105630;1251;61054;-24
2023/06/09 04:35:36;;;;;;;7.20;4.20;;;;;;;19.20;66.02;98926.69;106000;1254;61192;-24
2023/06/09 04:38:04;;;;;;;4.60;4.00;;;;;;;19.13;66.19;98927.64;105930;1251;73639;-24
2023/06/09 04:40:32;;;;;;;9.90;4.60;;;;;;;19.10;66.52;98927.67;106047;1251;74472;-24
2023/06/09 04:43:01;;;;;;;5.20;3.80;;;;;;;19.12;66.97;98928.42;106001;1254;72445;-24
2023/06/09 04:45:33;;;;;;;5.10;4.10;;;;;;;19.19;67.05;98935.42;105946;1256;61121;-24
2023/06/09 04:48:05;;;;;;;9.10;3.70;;;;;;;19.30;66.81;98933.40;105807;1254;61185;-24
2023/06/09 04:50:33;;;;;;;6.40;2.70;;;;;;;19.95;66.23;98934.91;105752;1251;73818;-24
2023/06/09 04:53:04;;;;;;;5.90;3.60;;;;;;;20.71;64.03;98931.89;105972;1254;74219;-24
2023/06/09 04:55:35;;;;;;;4.20;3.50;;;;;;;21.02;62.93;98930.84;105621;1252;70417;-24
2023/06/09 04:58:25;;;;;;;3.70;3.20;;;;;;;21.08;61.70;98932.57;105736;1251;61166;-24
2023/06/09 05:00:53;;;;;;;10.70;4.30;;;;;;;21.07;61.65;98933.09;105986;1253;61131;-24
2023/06/09 05:03:23;;;;;;;6.30;3.60;;;;;;;21.07;61.93;98938.55;106019;1251;72697;-24
2023/06/09 05:05:51;;;;;;;6.50;4.00;;;;;;;21.04;61.94;98935.73;106031;1254;72976;-24
2023/06/09 05:08:19;;;;;;;7.70;4.50;;;;;;;21.01;60.97;98934.73;105959;1253;73160;-24
2023/06/09 05:10:50;;;;;;;6.70;4.50;;;;;;;20.91;61.27;98932.04;105719;1252;61875;-24
2023/06/09 05:13:18;;;;;;;5.50;4.90;;;;;;;20.88;61.23;98936.58;105630;1257;61166;-24
2023/06/09 05:15:45;;;;;;;7.90;4.20;;;;;;;20.88;61.18;98934.13;105807;1256;73617;-24
2023/06/09 05:18:17;;;;;;;5.70;5.00;;;;;;;20.89;61.23;98935.70;105927;1257;74157;-24
2023/06/09 05:20:44;;;;;;;7.60;4.10;;;;;;;20.90;61.53;98934.76;105864;1254;72410;-24
2023/06/09 05:23:12;;;;;;;7.10;4.30;;;;;;;20.92;61.36;98930.63;105810;1252;61704;-24
2023/06/09 05:25:39;;;;;;;5.30;4.30;;;;;;;20.97;61.75;98930.92;105788;1256;61110;-24
2023/06/09 05:28:07;;;;;;;4.40;4.00;;;;;;;21.05;60.53;98928.19;105842;1251;73724;-24
2023/06/09 05:30:34;;;;;;;5.60;3.80;;;;;;;21.11;60.99;98931.95;106062;1251;74332;-24
2023/06/09 05:33:01;;;;;;;6.00;4.40;;;;;;;21.19;60.47;98931.69;105954;1252;72681;-24
2023/06/09 05:35:29;;;;;;;6.10;4.20;;;;;;;21.26;60.34;98926.98;106026;1252;61127;-24
2023/06/09 05:37:56;;;;;;;8.80;4.60;;;;;;;21.33;60.62;98928.19;105938;1251;61057;-24
2023/06/09 05:40:25;;;;;;;8.90;4.50;;;;;;;21.48;59.93;98927.59;106014;1251;73878;-24
2023/06/09 05:42:52;;;;;;;6.10;4.50;;;;;;;21.65;59.73;98926.75;106029;1254;74617;-24
2023/06/09 05:45:19;;;;;;;8.90;3.90;;;;;;;21.78;59.13;98927.20;105802;1252;72727;-24
2023/06/09 05:47:48;;;;;;;8.60;4.00;;;;;;;21.90;58.75;98927.42;105823;1250;61042;-23
2023/06/09 05:50:16;;;;;;;5.50;3.90;;;;;;;22.06;58.39;98925.77;105862;1257;61134;-24
2023/06/09 05:52:44;;;;;;;5.90;4.20;;;;;;;22.11;58.05;98926.26;105743;1254;73346;-24
2023/06/09 05:55:11;;;;;;;5.70;4.00;;;;;;;22.18;57.01;98926.74;105753;1251;74875;-24
2023/06/09 05:57:40;;;;;;;11.80;4.40;;;;;;;22.29;56.17;98927.16;105902;1251;72596;-24
2023/06/09 06:00:09;;;;;;;5.50;3.80;;;;;;;22.44;54.75;98929.13;105610;1251;61220;-24
2023/06/09 06:02:39;;;;;;;4.70;3.80;;;;;;;22.61;54.48;98932.24;105648;1253;61198;-23
2023/06/09 06:05:08;;;;;;;8.50;4.10;;;;;;;22.73;55.76;98934.48;105920;1252;72827;-24
2023/06/09 06:07:36;;;;;;;5.70;3.70;;;;;;;22.85;55.37;98938.01;105968;1251;73040;-23
2023/06/09 06:10:04;;;;;;;5.50;3.90;;;;;;;23.07;53.99;98943.56;105688;1253;72576;-24
2023/06/09 06:12:34;;;;;;;11.40;3.70;;;;;;;23.27;53.49;98946.75;105740;1260;61113;-24
2023/06/09 06:15:01;;;;;;;6.80;4.50;;;;;;;23.37;53.52;98947.02;105873;1253;61169;-24
2023/06/09 06:17:29;;;;;;;7.50;4.30;;;;;;;23.28;52.83;98942.10;105999;1251;74417;-24
2023/06/09 06:19:57;;;;;;;7.00;4.00;;;;;;;23.43;53.64;98938.23;105932;1254;74160;-24
2023/06/09 06:22:24;;;;;;;6.50;4.20;;;;;;;23.67;51.93;98938.59;105865;1251;70243;-24
2023/06/09 06:24:51;;;;;;;6.30;4.10;;;;;;;23.83;52.21;98933.33;105967;1251;61169;-24
2023/06/09 06:27:18;;;;;;;6.10;4.80;;;;;;;23.86;51.27;98933.06;105823;1251;61100;-24
2023/06/09 06:29:45;;;;;;;12.00;4.40;;;;;;;23.91;49.58;98938.16;105989;1251;73884;-24
2023/06/09 06:32:12;;;;;;;5.20;4.30;;;;;;;24.15;49.44;98939.64;105832;1252;74257;-24
2023/06/09 06:34:39;;;;;;;8.20;4.40;;;;;;;24.44;47.86;98940.88;105766;1252;72886;-23
2023/06/09 06:37:07;;;;;;;8.40;4.20;;;;;;;24.65;47.61;98940.73;105860;1251;61045;-24
2023/06/09 06:39:34;;;;;;;12.10;4.20;;;;;;;24.91;47.01;98940.59;105665;1257;61121;-24
2023/06/09 06:42:01;;;;;;;9.30;4.30;;;;;;;25.28;47.72;98942.27;105820;1251;73679;-24
2023/06/09 06:44:32;;;;;;;8.80;4.60;;;;;;;25.67;45.62;98940.55;105695;1251;74132;-24
2023/06/09 06:46:59;;;;;;;8.80;4.90;;;;;;;25.96;45.21;98942.79;105914;1252;73205;-24
2023/06/09 06:49:26;;;;;;;7.90;4.70;;;;;;;26.09;44.55;98937.98;105985;1252;61056;-24
2023/06/09 06:51:53;;;;;;;5.10;4.30;;;;;;;26.17;42.56;98940.11;105899;1254;61249;-24
2023/06/09 06:54:20;;;;;;;6.00;3.50;;;;;;;26.35;40.87;98940.64;105966;1252;73726;-24
2023/06/09 06:56:47;;;;;;;6.00;3.00;;;;;;;26.53;41.11;98936.55;105824;1254;74720;-24
2023/06/09 06:59:14;;;;;;;7.40;3.40;;;;;;;26.66;38.45;98935.57;105948;1252;72642;-24
2023/06/09 07:01:41;;;;;;;4.80;3.20;;;;;;;26.70;39.06;98935.66;105988;1251;61755;-24
2023/06/09 07:04:08;;;;;;;6.90;3.20;;;;;;;26.37;38.71;98936.98;105797;1254;61102;-24
2023/06/09 07:06:36;;;;;;;5.40;3.20;;;;;;;26.14;39.48;98931.75;105975;1250;74971;-24
2023/06/09 07:09:03;;;;;;;6.00;3.70;;;;;;;26.35;39.24;98931.77;105923;1254;74295;-23
2023/06/09 07:11:32;;;;;;;5.20;3.60;;;;;;;26.46;41.45;98931.33;105888;1252;72644;-24
2023/06/09 07:14:00;;;;;;;6.70;3.30;;;;;;;26.39;39.52;98928.44;105919;1252;61149;-24
2023/06/09 07:16:27;;;;;;;8.40;3.80;;;;;;;26.18;40.02;98931.54;106019;1255;61092;-23
2023/06/09 07:18:54;;;;;;;4.10;3.30;;;;;;;26.19;39.66;98930.67;105972;1252;74275;-24
2023/06/09 07:21:21;;;;;;;5.90;3.30;;;;;;;26.26;39.94;98930.04;105946;1251;75714;-23
2023/06/09 07:23:48;;;;;;;14.30;3.50;;;;;;;26.43;40.58;98929.66;105805;1251;73112;-23
2023/06/09 07:26:16;;;;;;;7.50;3.50;;;;;;;26.56;40.53;98926.27;105878;1251;61139;-23
2023/06/09 07:28:43;;;;;;;5.50;3.10;;;;;;;26.74;41.03;98927.09;105690;1256;61141;-23
2023/06/09 07:31:11;;;;;;;3.60;3.10;;;;;;;26.96;38.47;98927.92;106010;1251;73566;-24
2023/06/09 07:33:40;;;;;;;3.20;2.50;;;;;;;27.35;39.48;98924.77;105918;1257;74097;-23
2023/06/09 07:36:11;;;;;;;5.50;2.50;;;;;;;27.43;36.79;98924.95;105857;1257;74042;-23
2023/06/09 07:38:39;;;;;;;4.40;2.60;;;;;;;27.61;36.61;98924.42;105694;1251;61102;-24
2023/06/09 07:41:06;;;;;;;5.10;2.70;;;;;;;27.86;35.74;98925.12;105855;1252;61159;-24
2023/06/09 07:43:34;;;;;;;6.40;3.00;;;;;;;28.25;36.49;98926.43;105787;1252;72812;-24
2023/06/09 07:46:01;;;;;;;6.60;2.70;;;;;;;28.60;35.44;98923.48;106073;1251;74344;-22
2023/06/09 07:48:28;;;;;;;6.50;2.60;;;;;;;28.51;34.71;98924.59;106040;1251;72898;-23
2023/06/09 07:50:56;;;;;;;4.80;2.50;;;;;;;28.41;35.96;98921.34;106002;1251;61045;-23
2023/06/09 07:53:29;;;;;;;;;;;;;;;28.71;35.79;98923.24;106023;1254;61153;-24
2023/06/09 07:55:58;;;;;;;7.70;2.70;;;;;;;28.92;34.15;98923.85;106017;1254;73803;-24
2023/06/09 07:58:24;;;;;;;5.10;2.30;;;;;;;29.19;33.06;98925.34;105594;1251;74192;-23
2023/06/09 08:00:54;;;;;;;4.90;2.50;;;;;;;29.48;32.64;98922.30;105775;1252;72527;-22
2023/06/09 08:03:22;;;;;;;4.10;2.50;;;;;;;29.59;31.08;98924.38;105961;1252;61149;-22
2023/06/09 08:05:49;;;;;;;3.60;2.60;;;;;;;29.73;33.21;98927.80;105751;1256;61167;-22
2023/06/09 08:08:18;;;;;;;4.40;2.70;;;;;;;29.95;31.51;98924.52;105815;1252;73607;-22
2023/06/09 08:10:45;;;;;;;6.00;2.80;;;;;;;29.78;29.77;98923.71;105974;1254;65716;-22
2023/06/09 08:13:15;;;;;;;4.90;2.60;;;;;;;29.94;31.23;98918.42;105934;1251;63983;-22
2023/06/09 08:15:44;;;;;;;4.90;2.60;;;;;;;30.14;30.82;98913.85;105918;1257;61846;-24
2023/06/09 08:18:11;;;;;;;4.60;2.80;;;;;;;30.23;30.20;98914.83;105955;1256;61054;-24
2023/06/09 08:20:41;;;;;;;5.70;2.90;;;;;;;30.10;30.21;98916.19;105760;1254;73853;-23
2023/06/09 08:23:08;;;;;;;5.60;3.00;;;;;;;30.16;30.46;98914.14;105822;1252;74831;-23
2023/06/09 08:25:37;;;;;;;3.20;2.30;;;;;;;30.21;30.14;98908.11;105964;1252;72628;-23
2023/06/09 08:28:08;;;;;;;4.40;2.40;;;;;;;30.23;30.21;98906.89;105953;1254;61503;-22
2023/06/09 08:30:35;;;;;;;5.30;2.50;;;;;;;30.27;30.22;98908.52;105973;1254;61092;-22
2023/06/09 08:33:02;;;;;;;5.00;3.00;;;;;;;29.95;28.80;98912.20;106015;1254;65277;-22
2023/06/09 08:35:32;;;;;;;5.90;2.70;;;;;;;29.84;29.62;98905.83;106045;1254;74111;-23
2023/06/09 08:38:00;;;;;;;5.60;2.60;;;;;;;30.07;29.72;98911.77;106010;1253;72495;-23
2023/06/09 08:40:27;;;;;;;4.90;2.70;;;;;;;30.33;28.92;98905.13;105847;1252;61179;-23
2023/06/09 08:42:55;;;;;;;5.90;2.40;;;;;;;30.46;27.27;98899.30;105995;1254;61092;-23
2023/06/09 08:45:22;;;;;;;4.90;2.60;;;;;;;30.03;27.13;98904.16;105840;1251;64908;-23
2023/06/09 08:47:49;;;;;;;6.00;2.20;;;;;;;29.68;28.29;98910.61;106009;1254;74781;-23
2023/06/09 08:50:18;;;;;;;3.50;2.60;;;;;;;29.53;28.56;98908.04;106004;1252;72524;-24
2023/06/09 08:52:45;;;;;;;7.10;2.70;;;;;;;29.56;28.00;98909.02;105901;1253;61176;-24
2023/06/09 08:55:13;;;;;;;5.90;2.60;;;;;;;29.81;27.96;98904.24;106027;1252;61085;-23
2023/06/09 08:57:40;;;;;;;4.60;2.80;;;;;;;29.92;27.77;98900.68;106006;1251;73597;-23
2023/06/09 09:00:11;;;;;;;8.50;2.50;;;;;;;29.83;27.42;98903.66;105976;1256;73539;-23
2023/06/09 09:02:40;;;;;;;3.90;2.50;;;;;;;30.04;27.89;98905.14;105744;1258;71402;-24
2023/06/09 09:05:10;;;;;;;4.70;2.40;;;;;;;30.49;27.35;98899.91;105576;1254;61099;-24
2023/06/09 09:07:39;;;;;;;10.50;2.40;;;;;;;30.95;25.80;98898.19;105719;1256;61115;-23
2023/06/09 09:10:06;;;;;;;10.30;2.50;;;;;;;31.29;26.22;98896.15;105754;1252;65069;-23
2023/06/09 09:12:51;;;;;;;3.80;2.00;;;;;;;31.61;24.96;98898.95;105912;1257;65691;-23
2023/06/09 09:15:18;;;;;;;3.50;2.00;;;;;;;31.74;24.10;98896.55;105733;1255;63870;-24
2023/06/09 09:17:46;;;;;;;4.60;2.80;;;;;;;31.79;23.89;98898.72;105900;1250;61048;-23
2023/06/09 09:20:17;;;;;;;5.90;3.00;;;;;;;31.88;24.55;98897.84;105634;1251;61157;-23
2023/06/09 09:22:48;;;;;;;6.00;2.60;;;;;;;32.12;24.46;98896.74;105937;1254;65042;-23
2023/06/09 09:25:28;;;;;;;5.10;3.10;;;;;;;32.38;24.42;98896.61;105875;1251;65693;-23
2023/06/09 09:28:09;;;;;;;3.40;2.60;;;;;;;32.56;24.88;98894.79;105764;1251;63932;-23
2023/06/09 09:30:45;;;;;;;4.90;2.20;;;;;;;32.64;24.06;98893.63;105726;1251;61023;-24
2023/06/09 09:33:13;;;;;;;6.40;2.70;;;;;;;32.92;23.88;98886.55;105999;1256;61096;-23
2023/06/09 09:35:43;;;;;;;4.90;2.40;;;;;;;33.10;23.12;98882.98;105716;1258;65357;-23
2023/06/09 09:38:29;;;;;;;3.40;1.90;;;;;;;31.82;23.36;98881.23;105744;1251;65835;-23
2023/06/09 09:40:59;;;;;;;6.20;1.90;;;;;;;30.97;25.15;98880.95;105873;1251;63955;-24
2023/06/09 09:43:28;;;;;;;3.70;2.30;;;;;;;30.99;24.99;98883.38;105779;1252;61054;-23
2023/06/09 09:45:56;;;;;;;4.20;2.20;;;;;;;30.94;25.49;98885.45;105750;1260;61173;-23
2023/06/09 09:48:24;;;;;;;6.30;2.40;;;;;;;31.05;26.03;98884.35;105757;1260;65273;-24
2023/06/09 09:50:52;;;;;;;2.90;2.00;;;;;;;31.30;26.37;98882.81;105703;1251;65688;-24
2023/06/09 09:53:23;;;;;;;3.30;2.30;;;;;;;31.48;25.41;98881.66;105733;1258;63803;-23
2023/06/09 09:55:53;;;;;;;4.40;2.40;;;;;;;31.75;25.32;98876.24;105742;1250;61109;-23
2023/06/09 09:58:33;;;;;;;5.00;2.20;;;;;;;31.75;24.63;98871.99;105778;1251;61157;-23
2023/06/09 10:01:05;;;;;;;2.80;2.10;;;;;;;31.75;25.46;98873.08;105836;1251;65138;-23
2023/06/09 10:03:33;;;;;;;;;;;;;;;32.19;24.95;98869.21;105763;1260;65758;-23
2023/06/09 10:06:03;;;;;;;4.60;1.80;;;;;;;32.32;23.97;98867.04;105879;1255;64073;-24
2023/06/09 10:08:31;;;;;;;5.20;1.90;;;;;;;31.55;23.59;98868.42;105616;1257;60985;-23
2023/06/09 10:11:02;;;;;;;3.90;2.30;;;;;;;30.83;24.44;98863.65;105668;1257;61061;-24
2023/06/09 10:13:30;;;;;;;6.40;2.00;;;;;;;30.65;24.83;98859.76;105567;1252;73805;-23
2023/06/09 10:15:57;;;;;;;5.40;1.80;;;;;;;30.80;24.73;98860.58;105892;1254;65545;-23
2023/06/09 10:18:24;;;;;;;8.10;2.00;;;;;;;30.93;25.31;98862.33;105663;1257;62825;-23
2023/06/09 10:20:52;;;;;;;4.30;2.00;;;;;;;30.79;25.48;98860.88;105980;1250;61057;-23
2023/06/09 10:23:20;;;;;;;6.20;2.00;;;;;;;30.41;25.67;98861.52;105752;1257;61090;-23
2023/06/09 10:25:48;;;;;;;3.90;2.10;;;;;;;30.07;25.73;98859.32;105817;1257;73853;-23
2023/06/09 10:28:16;;;;;;;3.70;2.10;;;;;;;29.57;26.32;98862.09;106027;1257;74885;-23
2023/06/09 10:30:44;;;;;;;3.20;2.30;;;;;;;29.29;27.59;98866.70;105799;1255;72535;-23
2023/06/09 10:33:26;;;;;;;5.20;2.50;;;;;;;29.10;27.81;98866.81;105747;1251;61034;-24
2023/06/09 10:36:00;;;;;;;3.60;1.90;;;;;;;28.94;28.47;98861.61;105832;1262;61096;-23
2023/06/09 10:38:43;;;;;;;4.70;2.20;;;;;;;28.77;27.99;98860.44;105670;1258;73752;-23
2023/06/09 10:41:18;;;;;;;2.50;2.00;;;;;;;28.69;28.04;98858.34;105888;1257;75197;-24
2023/06/09 10:44:10;;;;;;;2.60;2.00;;;;;;;29.18;28.77;98854.94;105743;1257;72517;-23
2023/06/09 10:46:48;;;;;;;4.30;1.80;;;;;;;29.90;27.07;98844.33;106019;1263;61146;-23
2023/06/09 10:49:34;;;;;;;6.10;1.90;;;;;;;30.46;25.63;98838.91;105655;1260;61137;-23
2023/06/09 10:52:08;;;;;;;3.60;2.00;;;;;;;30.63;25.85;98831.69;106014;1256;74070;-23
2023/06/09 10:54:37;;;;;;;12.60;2.30;;;;;;;31.10;25.83;98833.14;105723;1258;65397;-23
2023/06/09 10:57:15;;;;;;;2.80;2.00;;;;;;;31.39;25.07;98830.98;105730;1251;64122;-23
2023/06/09 10:59:45;;;;;;;3.40;1.80;;;;;;;31.34;24.64;98827.27;105616;1252;61042;-24
2023/06/09 11:02:12;;;;;;;4.70;1.60;;;;;;;31.60;24.26;98827.44;105734;1256;61134;-23
2023/06/09 11:04:46;;;;;;;3.40;1.40;;;;;;;32.03;23.77;98825.20;105929;1257;64929;-23
2023/06/09 11:07:13;;;;;;;5.30;1.90;;;;;;;32.24;23.10;98822.93;105933;1257;65681;-24
2023/06/09 11:10:01;;;;;;;2.50;1.70;;;;;;;32.42;23.56;98823.48;105970;1254;64036;-24
2023/06/09 11:12:38;;;;;;;4.70;1.80;;;;;;;32.78;22.10;98821.23;105968;1251;61058;-23
2023/06/09 11:15:07;;;;;;;2.00;1.50;;;;;;;33.07;21.57;98818.21;105595;1259;61103;-23
2023/06/09 11:17:43;;;;;;;2.90;1.50;;;;;;;33.05;21.38;98816.83;105605;1257;63862;-23
2023/06/09 11:20:11;;;;;;;4.00;1.90;;;;;;;33.05;21.90;98819.27;105483;1259;64468;-23
2023/06/09 11:22:47;;;;;;;2.50;1.60;;;;;;;33.12;22.10;98816.52;105697;1257;64001;-23
2023/06/09 11:25:14;;;;;;;2.00;1.70;;;;;;;33.34;21.86;98813.02;105947;1251;61004;-23
2023/06/09 11:27:43;;;;;;;2.70;1.80;;;;;;;33.39;21.35;98807.11;105869;1256;61220;-23
2023/06/09 11:30:14;;;;;;;2.90;1.70;;;;;;;33.19;21.25;98805.52;105894;1257;65262;-23
2023/06/09 11:32:45;;;;;;;4.30;1.80;;;;;;;33.20;22.03;98806.16;105970;1256;65499;-24
2023/06/09 11:35:28;;;;;;;3.50;2.10;;;;;;;33.09;21.46;98801.80;105701;1257;63865;-23